createdAt,value
2023-04-25T00:04:54.199Z,1.90
2023-04-25T00:09:55.744Z,1.53
2023-04-25T00:14:57.155Z,2.10
2023-04-25T00:19:58.840Z,1.40
2023-04-25T00:25:00.310Z,1.47
2023-04-25T00:30:01.736Z,1.47
2023-04-25T00:35:03.145Z,1.50
2023-04-25T00:40:04.544Z,1.60
2023-04-25T00:45:05.955Z,1.60
2023-04-25T00:50:07.379Z,1.60
2023-04-25T00:55:08.761Z,1.70
2023-04-25T01:00:10.149Z,1.87
2023-04-25T01:05:11.536Z,1.70
2023-04-25T01:10:12.935Z,1.97
2023-04-25T01:15:14.385Z,1.60
2023-04-25T01:20:15.782Z,1.40
2023-04-25T01:25:17.178Z,1.93
2023-04-25T01:30:18.573Z,1.50
2023-04-25T01:35:19.969Z,1.47
2023-04-25T01:40:21.356Z,1.40
2023-04-25T01:45:22.745Z,1.60
2023-04-25T01:50:24.164Z,1.40
2023-04-25T01:55:25.561Z,1.30
2023-04-25T02:00:27.124Z,1.30
2023-04-25T02:05:28.503Z,1.53
2023-04-25T02:10:29.993Z,1.50
2023-04-25T02:15:31.409Z,1.63
2023-04-25T02:20:32.827Z,1.53
2023-04-25T02:25:34.233Z,1.50
2023-04-25T02:30:35.647Z,1.60
2023-04-25T02:35:37.037Z,1.50
2023-04-25T02:40:38.420Z,1.80
2023-04-25T02:45:39.808Z,1.60
2023-04-25T02:50:41.202Z,1.57
2023-04-25T02:55:42.640Z,1.40
2023-04-25T03:00:44.082Z,1.70
2023-04-25T03:05:45.528Z,1.97
2023-04-25T03:10:46.950Z,1.23
2023-04-25T03:15:48.355Z,1.33
2023-04-25T03:20:49.815Z,1.50
2023-04-25T03:25:51.236Z,1.67
2023-04-25T03:30:52.684Z,1.77
2023-04-25T03:35:54.106Z,1.67
2023-04-25T03:40:55.499Z,1.33
2023-04-25T03:45:56.954Z,1.70
2023-04-25T03:50:58.348Z,1.40
2023-04-25T03:55:59.744Z,1.70
2023-04-25T04:01:01.120Z,1.30
2023-04-25T04:06:02.517Z,1.50
2023-04-25T04:11:04.104Z,1.70
2023-04-25T04:16:05.610Z,1.40
2023-04-25T04:21:07.033Z,1.20
2023-04-25T04:26:08.442Z,1.33
2023-04-25T04:31:09.866Z,1.60
2023-04-25T04:36:11.316Z,1.97
2023-04-25T04:41:12.770Z,1.60
2023-04-25T04:46:14.268Z,1.80
2023-04-25T04:51:15.796Z,2.37
2023-04-25T04:56:17.312Z,1.73
2023-04-25T05:01:18.764Z,1.80
2023-04-25T05:06:20.260Z,1.63
2023-04-25T05:11:21.767Z,1.53
2023-04-25T05:16:24.103Z,1.50
2023-04-25T05:21:25.534Z,1.67
2023-04-25T05:26:26.936Z,1.60
2023-04-25T05:31:28.339Z,1.67
2023-04-25T05:36:29.756Z,1.40
2023-04-25T05:41:31.172Z,1.50
2023-04-25T05:46:32.751Z,2.30
2023-04-25T05:51:34.377Z,1.40
2023-04-25T05:56:35.823Z,1.63
2023-04-25T06:01:37.324Z,1.27
2023-04-25T06:06:38.773Z,1.87
2023-04-25T06:11:40.312Z,1.67
2023-04-25T06:16:41.695Z,1.80
2023-04-25T06:21:43.150Z,1.60
2023-04-25T06:26:44.553Z,1.57
2023-04-25T06:31:46.046Z,1.50
2023-04-25T06:36:47.485Z,1.63
2023-04-25T06:41:48.908Z,1.90
2023-04-25T06:46:50.360Z,1.43
2023-04-25T06:51:51.774Z,1.50
2023-04-25T06:56:53.178Z,1.77
2023-04-25T07:01:54.566Z,1.77
2023-04-25T07:06:56.095Z,2.00
2023-04-25T07:11:57.720Z,1.80
2023-04-25T07:16:59.216Z,1.57
2023-04-25T07:22:00.740Z,2.00
2023-04-25T07:27:02.160Z,1.73
2023-04-25T07:32:03.692Z,1.57
2023-04-25T07:37:05.194Z,1.50
2023-04-25T07:42:06.614Z,1.40
2023-04-25T07:47:08.038Z,1.63
2023-04-25T07:52:09.424Z,1.50
2023-04-25T07:57:10.858Z,1.73
2023-04-25T08:02:12.325Z,1.60
2023-04-25T08:07:13.784Z,1.37
2023-04-25T08:12:15.189Z,1.60
2023-04-25T08:17:16.581Z,1.80
2023-04-25T08:22:17.971Z,1.40
2023-04-25T08:27:19.989Z,1.90
2023-04-25T08:32:21.500Z,1.60
2023-04-25T08:37:22.944Z,2.10
2023-04-25T08:42:29.225Z,1.80
2023-04-25T08:47:30.659Z,1.30
2023-04-25T08:52:32.142Z,1.47
2023-04-25T08:57:33.587Z,1.57
2023-04-25T09:02:35.082Z,1.57
2023-04-25T09:07:36.557Z,1.30
2023-04-25T09:12:37.990Z,1.40
2023-04-25T09:17:39.616Z,1.50
2023-04-25T09:22:41.030Z,1.40
2023-04-25T09:27:42.548Z,1.30
2023-04-25T09:32:43.970Z,1.70
2023-04-25T09:37:45.381Z,1.47
2023-04-25T09:42:46.766Z,1.50
2023-04-25T09:47:48.181Z,1.57
2023-04-25T09:52:49.629Z,1.83
2023-04-25T09:57:51.098Z,1.37
2023-04-25T10:02:52.620Z,1.40
2023-04-25T10:07:54.101Z,1.43
2023-04-25T10:12:55.489Z,1.77
2023-04-25T10:17:56.916Z,1.30
2023-04-25T10:22:58.312Z,1.90
2023-04-25T10:27:59.726Z,1.20
2023-04-25T10:33:01.131Z,1.40
2023-04-25T10:38:02.513Z,1.43
2023-04-25T10:43:03.889Z,1.80
2023-04-25T10:48:05.330Z,1.50
2023-04-25T10:53:06.754Z,1.77
2023-04-25T10:58:08.152Z,1.67
2023-04-25T11:03:09.711Z,1.40
2023-04-25T11:08:11.224Z,1.17
2023-04-25T11:13:12.712Z,1.37
2023-04-25T11:18:14.281Z,1.60
2023-04-25T11:23:15.743Z,1.53
2023-04-25T11:28:17.191Z,1.33
2023-04-25T11:33:18.683Z,1.30
2023-04-25T11:38:20.987Z,1.37
2023-04-25T11:43:23.914Z,1.40
2023-04-25T11:51:17.456Z,1.30
2023-04-25T11:53:46.764Z,1.40
2023-04-25T11:58:48.149Z,1.37
2023-04-25T12:03:49.714Z,1.33
2023-04-25T12:08:51.574Z,1.33
2023-04-25T12:13:53.128Z,1.30
2023-04-25T12:18:54.529Z,1.50
2023-04-25T12:23:55.933Z,1.33
2023-04-25T12:28:57.326Z,1.40
2023-04-25T12:33:58.763Z,1.30
2023-04-25T12:39:00.289Z,1.50
2023-04-25T12:44:01.689Z,1.40
2023-04-25T12:49:17.275Z,1.30
2023-04-25T12:54:19.913Z,1.17
2023-04-25T12:59:21.316Z,1.37
2023-04-25T13:04:22.847Z,1.70
2023-04-25T13:09:24.365Z,1.37
2023-04-25T13:14:25.860Z,1.33
2023-04-25T13:19:27.262Z,1.50
2023-04-25T13:24:28.655Z,1.50
2023-04-25T13:29:30.042Z,1.47
2023-04-25T13:34:31.466Z,1.70
2023-04-25T13:39:32.914Z,1.50
2023-04-25T13:44:34.344Z,1.53
2023-04-25T13:49:35.834Z,1.40
2023-04-25T13:54:37.311Z,1.43
2023-04-25T13:59:38.693Z,1.63
2023-04-25T14:04:40.134Z,1.43
2023-04-25T14:09:41.599Z,1.40
2023-04-25T14:14:42.995Z,1.60
2023-04-25T14:19:44.436Z,1.53
2023-04-25T14:24:45.827Z,1.23
2023-04-25T14:29:47.229Z,1.50
2023-04-25T14:34:48.665Z,1.50
2023-04-25T14:39:50.076Z,1.63
2023-04-25T14:44:51.470Z,1.40
2023-04-25T14:49:52.860Z,1.43
2023-04-25T14:54:54.256Z,1.20
2023-04-25T14:59:55.654Z,1.23
2023-04-25T15:04:57.299Z,1.30
2023-04-25T15:09:58.830Z,1.10
2023-04-25T15:15:00.235Z,1.50
2023-04-25T15:20:01.891Z,1.40
2023-04-25T15:25:03.359Z,1.10
2023-04-25T15:30:04.783Z,1.20
2023-04-25T15:35:06.191Z,1.63
2023-04-25T15:40:07.593Z,1.57
2023-04-25T15:45:08.994Z,1.20
2023-04-25T15:50:10.388Z,1.43
2023-04-25T15:55:11.811Z,1.10
2023-04-25T16:00:13.464Z,1.07
2023-04-25T16:05:15.104Z,1.50
2023-04-25T16:10:16.611Z,1.50
2023-04-25T16:15:18.038Z,1.20
2023-04-25T16:20:19.431Z,1.30
2023-04-25T16:25:20.833Z,1.23
2023-04-25T16:30:22.225Z,1.40
2023-04-25T16:35:23.617Z,1.50
2023-04-25T16:40:25.015Z,1.63
2023-04-25T16:45:26.409Z,1.23
2023-04-25T16:50:27.872Z,1.17
2023-04-25T16:55:29.397Z,1.40
2023-04-25T17:00:30.821Z,1.33
2023-04-25T17:05:32.388Z,1.30
2023-04-25T17:10:33.852Z,1.70
2023-04-25T17:15:35.253Z,1.70
2023-04-25T17:20:36.679Z,1.57
2023-04-25T17:25:38.087Z,1.70
2023-04-25T17:30:39.524Z,1.37
2023-04-25T17:35:40.994Z,1.50
2023-04-25T17:40:42.424Z,1.40
2023-04-25T17:45:43.835Z,1.70
2023-04-25T17:50:45.270Z,2.10
2023-04-25T17:55:46.667Z,1.73
2023-04-25T18:00:48.078Z,2.27
2023-04-25T18:05:49.512Z,2.13
2023-04-25T18:10:51.029Z,1.50
2023-04-25T18:15:52.528Z,1.97
2023-04-25T18:20:53.958Z,1.70
2023-04-25T18:25:55.356Z,2.27
2023-04-25T18:30:56.782Z,1.30
2023-04-25T18:35:59.586Z,1.90
2023-04-25T18:41:18.265Z,1.70
2023-04-25T18:46:22.563Z,1.70
2023-04-25T18:51:24.100Z,2.20
2023-04-25T18:56:25.510Z,1.90
2023-04-25T19:01:27.050Z,1.70
2023-04-25T19:06:28.574Z,1.60
2023-04-25T19:11:29.971Z,2.27
2023-04-25T19:16:31.409Z,1.93
2023-04-25T19:21:32.834Z,1.67
2023-04-25T19:26:34.363Z,1.80
2023-04-25T19:31:35.905Z,1.93
2023-04-25T19:36:37.309Z,2.13
2023-04-25T19:41:38.972Z,2.00
2023-04-25T19:46:40.499Z,2.30
2023-04-25T19:51:41.954Z,2.20
2023-04-25T19:56:43.346Z,1.93
2023-04-25T20:01:44.853Z,2.13
2023-04-25T20:06:46.407Z,1.90
2023-04-25T20:11:47.850Z,2.20
2023-04-25T20:16:49.351Z,1.70
2023-04-25T20:21:50.789Z,2.17
2023-04-25T20:26:52.188Z,2.40
2023-04-25T20:31:53.632Z,1.97
2023-04-25T20:36:55.198Z,2.20
2023-04-25T20:41:56.634Z,1.90
2023-04-25T20:46:58.025Z,1.83
2023-04-25T20:51:59.419Z,2.27
2023-04-25T20:57:00.860Z,2.37
2023-04-25T21:02:02.262Z,1.80
2023-04-25T21:07:03.713Z,2.10
2023-04-25T21:12:05.097Z,1.97
2023-04-25T21:17:06.564Z,2.17
2023-04-25T21:22:07.970Z,3.03
2023-04-25T21:27:09.370Z,2.30
2023-04-25T21:32:10.772Z,2.07
2023-04-25T21:37:12.207Z,2.07
2023-04-25T21:42:13.618Z,2.30
2023-04-25T21:47:15.046Z,1.90
2023-04-25T21:52:16.489Z,2.40
2023-04-25T21:57:17.912Z,2.83
2023-04-25T22:02:19.547Z,2.50
2023-04-25T22:07:21.135Z,2.53
2023-04-25T22:12:22.635Z,2.10
2023-04-25T22:17:24.190Z,2.83
2023-04-25T22:22:25.623Z,2.40
2023-04-25T22:27:27.008Z,2.70
2023-04-25T22:32:28.430Z,3.07
2023-04-25T22:37:30.966Z,2.20
2023-04-25T22:42:32.368Z,2.63
2023-04-25T22:47:33.796Z,2.70
2023-04-25T22:52:35.196Z,2.73
2023-04-25T22:57:36.589Z,2.17
2023-04-25T23:02:38.131Z,2.10
2023-04-25T23:07:39.748Z,2.17
2023-04-25T23:12:41.211Z,2.37
2023-04-25T23:17:42.698Z,2.07
2023-04-25T23:22:44.142Z,2.50
2023-04-25T23:27:45.595Z,2.27
2023-04-25T23:32:47.085Z,2.43
2023-04-25T23:37:48.511Z,2.40
2023-04-25T23:42:49.925Z,2.30
2023-04-25T23:47:51.351Z,2.10
2023-04-25T23:52:52.806Z,2.00
2023-04-25T23:57:54.202Z,2.23
